地図

経路データ

SID SEASON NUMBER BASIN SUBBASIN NAME ISO_TIME NATURE LAT LON WMO_WIND WMO_PRES WMO_AGENCY TRACK_TYPE DIST2LAND LANDFALL IFLAG USA_AGENCY USA_ATCF_ID USA_LAT USA_LON USA_RECORD USA_STATUS USA_WIND USA_PRES USA_SSHS USA_R34_NE USA_R34_SE USA_R34_SW USA_R34_NW USA_R50_NE USA_R50_SE USA_R50_SW USA_R50_NW USA_R64_NE USA_R64_SE USA_R64_SW USA_R64_NW USA_POCI USA_ROCI USA_RMW USA_EYE TOKYO_LAT TOKYO_LON TOKYO_GRADE TOKYO_WIND TOKYO_PRES TOKYO_R50_DIR TOKYO_R50_LONG TOKYO_R50_SHORT TOKYO_R30_DIR TOKYO_R30_LONG TOKYO_R30_SHORT TOKYO_LAND CMA_LAT CMA_LON CMA_CAT CMA_WIND CMA_PRES HKO_LAT HKO_LON HKO_CAT HKO_WIND HKO_PRES NEWDELHI_LAT NEWDELHI_LON NEWDELHI_GRADE NEWDELHI_WIND NEWDELHI_PRES NEWDELHI_CI NEWDELHI_DP NEWDELHI_POCI REUNION_LAT REUNION_LON REUNION_TYPE REUNION_WIND REUNION_PRES REUNION_TNUM REUNION_CI REUNION_RMW REUNION_R34_NE REUNION_R34_SE REUNION_R34_SW REUNION_R34_NW REUNION_R50_NE REUNION_R50_SE REUNION_R50_SW REUNION_R50_NW REUNION_R64_NE REUNION_R64_SE REUNION_R64_SW REUNION_R64_NW BOM_LAT BOM_LON BOM_TYPE BOM_WIND BOM_PRES BOM_TNUM BOM_CI BOM_RMW BOM_R34_NE BOM_R34_SE BOM_R34_SW BOM_R34_NW BOM_R50_NE BOM_R50_SE BOM_R50_SW BOM_R50_NW BOM_R64_NE BOM_R64_SE BOM_R64_SW BOM_R64_NW BOM_ROCI BOM_POCI BOM_EYE BOM_POS_METHOD BOM_PRES_METHOD NADI_LAT NADI_LON NADI_CAT NADI_WIND NADI_PRES WELLINGTON_LAT WELLINGTON_LON WELLINGTON_WIND WELLINGTON_PRES DS824_LAT DS824_LON DS824_STAGE DS824_WIND DS824_PRES TD9636_LAT TD9636_LON TD9636_STAGE TD9636_WIND TD9636_PRES TD9635_LAT TD9635_LON TD9635_WIND TD9635_PRES TD9635_ROCI NEUMANN_LAT NEUMANN_LON NEUMANN_CLASS NEUMANN_WIND NEUMANN_PRES MLC_LAT MLC_LON MLC_CLASS MLC_WIND MLC_PRES USA_GUST BOM_GUST BOM_GUST_PER REUNION_GUST REUNION_GUST_PER USA_SEAHGT USA_SEARAD_NE USA_SEARAD_SE USA_SEARAD_SW USA_SEARAD_NW STORM_SPEED STORM_DIR
1981229N13327 1981 68 NA NA NOT_NAMED 1981-08-17 06:00:00 TS 12.8000 -33.0000 20 hurdat_atl main 1688 1688 O_____________ hurdat_atl AL111981 12.8000 -33.0000 TD 20 -1 15 277
1981229N13327 1981 68 NA NA NOT_NAMED 1981-08-17 09:00:00 TS 12.8904 -33.7475 main 1761 1761 P_____________ AL111981 12.8904 -33.7475 TD 22 -1 15 278
1981229N13327 1981 68 NA NA NOT_NAMED 1981-08-17 12:00:00 TS 13.0000 -34.5000 25 hurdat_atl main 1845 1845 O_____________ hurdat_atl AL111981 13.0000 -34.5000 TD 25 -1 15 280
1981229N13327 1981 68 NA NA NOT_NAMED 1981-08-17 15:00:00 TS 13.1423 -35.2575 main 1860 1857 P_____________ AL111981 13.1423 -35.2575 TD 25 -1 15 282
1981229N13327 1981 68 NA NA NOT_NAMED 1981-08-17 18:00:00 TS 13.3000 -36.0000 25 hurdat_atl main 1862 1858 O_____________ hurdat_atl AL111981 13.3000 -36.0000 TD 25 -1 14 283
1981229N13327 1981 68 NA NA NOT_NAMED 1981-08-17 21:00:00 TS 13.4572 -36.7000 main 1869 1847 P_____________ AL111981 13.4572 -36.7000 TD 27 -1 14 282
1981229N13327 1981 68 NA NA NOT_NAMED 1981-08-18 00:00:00 TS 13.6000 -37.4000 30 hurdat_atl main 1847 1791 O_____________ hurdat_atl AL111981 13.6000 -37.4000 TD 30 -1 14 280
1981229N13327 1981 68 NA NA NOT_NAMED 1981-08-18 03:00:00 TS 13.7073 -38.1351 main 1791 1727 P_____________ AL111981 13.7073 -38.1351 TD 30 -1 15 278
1981229N13327 1981 68 NA NA NOT_NAMED 1981-08-18 06:00:00 TS 13.8000 -38.9000 30 hurdat_atl main 1727 1674 O_____________ hurdat_atl AL111981 13.8000 -38.9000 TD 30 -1 15 278
1981229N13327 1981 68 NA NA NOT_NAMED 1981-08-18 09:00:00 TS 13.9147 -39.6849 main 1666 1607 P_____________ AL111981 13.9147 -39.6849 TD 30 -1 16 277
1981229N13327 1981 68 NA NA NOT_NAMED 1981-08-18 12:00:00 TS 14.0000 -40.5000 30 hurdat_atl main 1607 1544 O_____________ hurdat_atl AL111981 14.0000 -40.5000 TD 30 -1 16 274
1981229N13327 1981 68 NA NA NOT_NAMED 1981-08-18 15:00:00 TS 14.0147 -41.3352 main 1544 1475 P_____________ AL111981 14.0147 -41.3352 TD 30 -1 17 270
1981229N13327 1981 68 NA NA NOT_NAMED 1981-08-18 18:00:00 TS 14.0000 -42.2000 30 hurdat_atl main 1475 1417 O_____________ hurdat_atl AL111981 14.0000 -42.2000 TD 30 -1 17 270
1981229N13327 1981 68 NA NA NOT_NAMED 1981-08-18 21:00:00 TS 14.0071 -43.0774 main 1410 1356 P_____________ AL111981 14.0071 -43.0774 TD 30 -1 17 270
1981229N13327 1981 68 NA NA NOT_NAMED 1981-08-19 00:00:00 TS 14.0000 -44.0000 30 hurdat_atl main 1349 1287 O_____________ hurdat_atl AL111981 14.0000 -44.0000 TD 30 -1 19 268
1981229N13327 1981 68 NA NA NOT_NAMED 1981-08-19 03:00:00 TS 13.9575 -45.0076 main 1287 1220 P_____________ AL111981 13.9575 -45.0076 TD 30 -1 19 267
1981229N13327 1981 68 NA NA NOT_NAMED 1981-08-19 06:00:00 TS 13.9000 -46.0000 30 hurdat_atl main 1213 1157 O_____________ hurdat_atl AL111981 13.9000 -46.0000 TD 30 -1 18 267
1981229N13327 1981 68 NA NA NOT_NAMED 1981-08-19 09:00:00 TS 13.8572 -46.9024 main 1157 1103 P_____________ AL111981 13.8572 -46.9024 TD 30 -1 17 267
1981229N13327 1981 68 NA NA NOT_NAMED 1981-08-19 12:00:00 TS 13.8000 -47.7000 30 hurdat_atl main 1103 1062 O_____________ hurdat_atl AL111981 13.8000 -47.7000 TD 30 -1 14 264
1981229N13327 1981 68 NA NA NOT_NAMED 1981-08-19 15:00:00 TS 13.7071 -48.3800 main 1057 1018 P_____________ AL111981 13.7071 -48.3800 TD 27 -1 13 261
1981229N13327 1981 68 NA NA NOT_NAMED 1981-08-19 18:00:00 TS 13.6000 -49.0000 25 hurdat_atl main 1018 983 O_____________ hurdat_atl AL111981 13.6000 -49.0000 TD 25 -1 12 261
1981229N13327 1981 68 NA NA NOT_NAMED 1981-08-19 21:00:00 TS 13.5071 -49.6274 main 983 942 P_____________ AL111981 13.5071 -49.6274 TD 25 -1 13 261
1981229N13327 1981 68 NA NA NOT_NAMED 1981-08-20 00:00:00 TS 13.4000 -50.3000 25 hurdat_atl main 942 895 O_____________ hurdat_atl AL111981 13.4000 -50.3000 TD 25 -1 15 260
1981229N13327 1981 68 NA NA NOT_NAMED 1981-08-20 03:00:00 TS 13.2427 -51.1077 main 885 845 P_____________ AL111981 13.2427 -51.1077 TD 25 -1 16 259
1981229N13327 1981 68 NA NA NOT_NAMED 1981-08-20 06:00:00 TS 13.1000 -51.9000 25 hurdat_atl main 845 827 O_____________ hurdat_atl AL111981 13.1000 -51.9000 TD 25 -1 14 263
1981229N13327 1981 68 NA NA NOT_NAMED 1981-08-20 09:00:00 TS 13.0645 -52.5146 main 827 804 P_____________ AL111981 13.0645 -52.5146 TD 25 -1 12 265
1981229N13327 1981 68 NA NA NOT_NAMED 1981-08-20 12:00:00 TS 13.0000 -53.1000 25 hurdat_atl main 804 774 O_____________ hurdat_atl AL111981 13.0000 -53.1000 TD 25 -1 13 257
1981229N13327 1981 68 NA NA NOT_NAMED 1981-08-20 15:00:00 TS 12.7800 -53.8002 main 774 704 P_____________ AL111981 12.7800 -53.8002 TD 25 -1 15 250
1981229N13327 1981 68 NA NA NOT_NAMED 1981-08-20 18:00:00 TS 12.5000 -54.5000 25 hurdat_atl main 704 643 O_____________ hurdat_atl AL111981 12.5000 -54.5000 TD 25 -1 14 247
1981229N13327 1981 68 NA NA NOT_NAMED 1981-08-20 21:00:00 TS 12.2423 -55.1149 main 635 575 P_____________ AL111981 12.2423 -55.1149 TD 22 -1 13 247
1981229N13327 1981 68 NA NA NOT_NAMED 1981-08-21 00:00:00 TS 12.0000 -55.7000 20 hurdat_atl main 575 518 O_____________ hurdat_atl AL111981 12.0000 -55.7000 TD 20 -1 12 250
1981229N13327 1981 68 NA NA NOT_NAMED 1981-08-21 03:00:00 TS 11.8074 -56.3073 main 518 458 P_____________ AL111981 11.8074 -56.3073 TD 20 -1 12 251
1981229N13327 1981 68 NA NA NOT_NAMED 1981-08-21 06:00:00 TS 11.6000 -56.9000 20 hurdat_atl main 458 398 O_____________ hurdat_atl AL111981 11.6000 -56.9000 TD 20 -1 12 247
1981229N13327 1981 68 NA NA NOT_NAMED 1981-08-21 09:00:00 TS 11.3224 -57.4574 main 388 329 P_____________ AL111981 11.3224 -57.4574 TD 20 -1 12 241
1981229N13327 1981 68 NA NA NOT_NAMED 1981-08-21 12:00:00 TS 11.0000 -58.0000 20 hurdat_atl main 329 273 O_____________ hurdat_atl AL111981 11.0000 -58.0000 TD 20 -1 13 238
1981229N13327 1981 68 NA NA NOT_NAMED 1981-08-21 15:00:00 TS 10.6552 -58.5477 main 273 208 P_____________ AL111981 10.6552 -58.5477 TD 17 -1 13 237
1981229N13327 1981 68 NA NA NOT_NAMED 1981-08-21 18:00:00 TS 10.3000 -59.1000 15 hurdat_atl main 208 O_____________ hurdat_atl AL111981 10.3000 -59.1000 TD 15 -1 13 237

IBTrACS Databaseについて

本データベースは、米国NOAAが公開する1842年以降の世界の熱帯低気圧のベストトラックデータアーカイブInternational Best Track Archive for Climate Stewardship (IBTrACS)を、ウェブで閲覧しやすい形式に変換したものです。

最終更新日:2021-12-06